createdAt,value
2017-06-02T00:00:14.694Z,74.61
2017-06-02T00:01:16.184Z,74.22
2017-06-02T00:02:17.648Z,74.41
2017-06-02T00:03:19.112Z,73.75
2017-06-02T00:04:20.672Z,73.55
2017-06-02T00:05:22.142Z,74.13
2017-06-02T00:06:23.594Z,73.84
2017-06-02T00:07:25.054Z,73.27
2017-06-02T00:08:26.506Z,73.17
2017-06-02T00:09:27.965Z,73.94
2017-06-02T00:10:29.434Z,73.27
2017-06-02T00:11:30.889Z,73.08
2017-06-02T00:12:32.343Z,73.46
2017-06-02T00:13:33.795Z,73.55
2017-06-02T00:14:35.249Z,74.70
2017-06-02T00:15:36.707Z,75.24
2017-06-02T00:16:38.178Z,76.77
2017-06-02T00:17:39.644Z,76.39
2017-06-02T00:18:41.102Z,77.72
2017-06-02T00:19:42.565Z,77.82
2017-06-02T00:20:44.036Z,77.06
2017-06-02T00:21:45.498Z,77.15
2017-06-02T00:22:46.957Z,76.20
2017-06-02T00:23:48.417Z,75.34
2017-06-02T00:24:49.872Z,74.51
2017-06-02T00:25:51.335Z,74.04
2017-06-02T00:26:52.795Z,73.46
2017-06-02T00:27:54.256Z,73.08
2017-06-02T00:28:55.722Z,72.50
2017-06-02T00:29:57.169Z,72.41
2017-06-02T00:30:58.624Z,72.16
2017-06-02T00:32:00.085Z,71.77
2017-06-02T00:33:01.537Z,71.77
2017-06-02T00:34:02.994Z,72.34
2017-06-02T00:35:04.451Z,72.25
2017-06-02T00:36:06.439Z,72.54
2017-06-02T00:37:07.895Z,72.34
2017-06-02T00:38:09.349Z,72.31
2017-06-02T00:39:10.808Z,72.22
2017-06-02T00:40:12.280Z,72.44
2017-06-02T00:41:13.754Z,71.87
2017-06-02T00:42:15.214Z,71.97
2017-06-02T00:43:16.673Z,72.02
2017-06-02T00:44:18.130Z,72.50
2017-06-02T00:45:19.583Z,72.98
2017-06-02T00:46:21.059Z,73.46
2017-06-02T00:47:22.510Z,74.13
2017-06-02T00:48:24.160Z,75.05
2017-06-02T00:49:25.992Z,75.52
2017-06-02T00:50:27.597Z,75.62
2017-06-02T00:51:29.134Z,76.00
2017-06-02T00:52:30.592Z,74.85
2017-06-02T00:53:32.048Z,74.95
2017-06-02T00:54:33.501Z,74.90
2017-06-02T00:55:34.957Z,74.95
2017-06-02T00:56:36.430Z,75.24
2017-06-02T00:57:37.887Z,75.43
2017-06-02T00:58:39.342Z,76.00
2017-06-02T00:59:40.806Z,76.20
2017-06-02T01:00:42.270Z,76.29
2017-06-02T01:01:43.724Z,76.96
2017-06-02T01:02:45.181Z,77.63
2017-06-02T01:03:46.657Z,78.07
2017-06-02T01:04:48.108Z,78.74
2017-06-02T01:05:49.565Z,78.26
2017-06-02T01:06:51.022Z,78.93
2017-06-02T01:07:52.474Z,79.60
2017-06-02T01:08:53.930Z,80.04
2017-06-02T01:09:55.387Z,80.51
2017-06-02T01:10:56.842Z,80.99
2017-06-02T01:11:58.292Z,80.99
2017-06-02T01:12:59.751Z,80.99
2017-06-02T01:14:01.215Z,80.80
2017-06-02T01:15:02.671Z,81.37
2017-06-02T01:16:04.142Z,81.37
2017-06-02T01:17:05.599Z,82.04
2017-06-02T01:18:07.060Z,82.61
2017-06-02T01:19:08.517Z,82.90
2017-06-02T01:20:09.979Z,83.67
2017-06-02T01:21:11.432Z,83.91
2017-06-02T01:22:12.896Z,83.91
2017-06-02T01:23:14.357Z,83.00
2017-06-02T01:24:15.814Z,82.23
2017-06-02T01:25:17.266Z,81.47
2017-06-02T01:26:18.723Z,81.27
2017-06-02T01:27:20.178Z,80.61
2017-06-02T01:28:21.661Z,81.09
2017-06-02T01:29:23.121Z,81.76
2017-06-02T01:30:24.576Z,82.81
2017-06-02T01:31:26.038Z,82.23
2017-06-02T01:32:27.494Z,83.14
2017-06-02T01:33:28.943Z,84.00
2017-06-02T01:34:30.399Z,84.86
2017-06-02T01:35:31.858Z,85.15
2017-06-02T01:36:33.312Z,85.44
2017-06-02T01:37:34.765Z,86.49
2017-06-02T01:38:36.221Z,86.39
2017-06-02T01:39:37.697Z,86.49
2017-06-02T01:40:39.145Z,86.58
2017-06-02T01:41:40.613Z,87.06
2017-06-02T01:42:42.062Z,87.06
2017-06-02T01:43:43.523Z,87.35
2017-06-02T01:44:44.984Z,87.68
2017-06-02T01:45:46.441Z,88.16
2017-06-02T01:46:47.922Z,88.35
2017-06-02T01:47:49.373Z,88.54
2017-06-02T01:48:50.830Z,88.54
2017-06-02T01:49:52.287Z,89.21
2017-06-02T01:50:53.746Z,89.12
2017-06-02T01:51:55.204Z,89.50
2017-06-02T01:52:56.657Z,89.97
2017-06-02T01:53:58.108Z,89.69
2017-06-02T01:54:59.562Z,89.59
2017-06-02T01:56:01.015Z,89.69
2017-06-02T01:57:02.468Z,89.02
2017-06-02T01:58:03.918Z,89.21
2017-06-02T01:59:05.371Z,88.83
2017-06-02T02:00:06.832Z,89.78
2017-06-02T02:01:08.282Z,89.59
2017-06-02T02:02:09.729Z,88.73
2017-06-02T02:03:11.186Z,88.54
2017-06-02T02:04:12.644Z,88.40
2017-06-02T02:05:14.100Z,88.01
2017-06-02T02:06:15.569Z,88.30
2017-06-02T02:07:17.037Z,88.87
2017-06-02T02:08:18.490Z,88.92
2017-06-02T02:09:19.941Z,89.02
2017-06-02T02:10:21.411Z,89.88
2017-06-02T02:11:22.865Z,90.36
2017-06-02T02:12:24.322Z,90.83
2017-06-02T02:13:25.773Z,90.83
2017-06-02T02:14:27.233Z,91.60
2017-06-02T02:15:28.702Z,91.46
2017-06-02T02:16:30.155Z,91.88
2017-06-02T02:17:31.618Z,92.22
2017-06-02T02:18:33.062Z,92.88
2017-06-02T02:19:34.526Z,93.17
2017-06-02T02:20:35.980Z,93.46
2017-06-02T02:21:37.435Z,92.98
2017-06-02T02:22:38.888Z,93.55
2017-06-02T02:23:40.340Z,93.46
2017-06-02T02:24:41.812Z,93.74
2017-06-02T02:25:43.262Z,93.70
2017-06-02T02:26:44.718Z,93.55
2017-06-02T02:27:46.168Z,93.84
2017-06-02T02:28:47.635Z,93.88
2017-06-02T02:29:49.090Z,94.22
2017-06-02T02:30:50.550Z,93.65
2017-06-02T02:31:52.004Z,94.22
2017-06-02T02:32:53.457Z,94.98
2017-06-02T02:33:54.914Z,94.98
2017-06-02T02:34:56.440Z,94.79
2017-06-02T02:35:57.897Z,94.79
2017-06-02T02:36:59.357Z,95.56
2017-06-02T02:38:00.816Z,95.84
2017-06-02T02:39:02.286Z,95.37
2017-06-02T02:40:03.743Z,95.84
2017-06-02T02:41:05.207Z,95.75
2017-06-02T02:42:06.685Z,95.75
2017-06-02T02:43:08.141Z,95.56
2017-06-02T02:44:09.668Z,95.08
2017-06-02T02:45:11.132Z,95.27
2017-06-02T02:46:12.600Z,95.27
2017-06-02T02:47:14.053Z,95.27
2017-06-02T02:48:15.510Z,95.84
2017-06-02T02:49:16.968Z,95.94
2017-06-02T02:50:18.426Z,95.94
2017-06-02T02:51:19.876Z,96.41
2017-06-02T02:52:21.329Z,96.41
2017-06-02T02:53:22.784Z,96.80
2017-06-02T02:54:24.239Z,97.08
2017-06-02T02:55:25.709Z,96.61
2017-06-02T02:56:27.186Z,96.70
2017-06-02T02:57:28.633Z,96.22
2017-06-02T02:58:30.092Z,95.89
2017-06-02T02:59:31.547Z,96.75
2017-06-02T03:00:33.009Z,97.17
2017-06-02T03:01:34.461Z,97.56
2017-06-02T03:02:35.918Z,97.66
2017-06-02T03:03:37.375Z,97.75
2017-06-02T03:04:38.833Z,96.98
2017-06-02T03:05:40.288Z,97.27
2017-06-02T03:06:41.768Z,97.17
2017-06-02T03:07:43.232Z,97.27
2017-06-02T03:08:44.693Z,97.46
2017-06-02T03:09:46.152Z,96.98
2017-06-02T03:10:47.602Z,97.17
2017-06-02T03:11:49.068Z,97.27
2017-06-02T03:12:50.519Z,97.08
2017-06-02T03:13:51.973Z,97.27
2017-06-02T03:14:53.430Z,96.98
2017-06-02T03:15:54.887Z,96.70
2017-06-02T03:16:56.354Z,96.61
2017-06-02T03:17:57.814Z,96.51
2017-06-02T03:18:59.271Z,96.70
2017-06-02T03:20:00.723Z,97.17
2017-06-02T03:21:02.179Z,97.66
2017-06-02T03:22:03.637Z,97.85
2017-06-02T03:23:05.093Z,96.98
2017-06-02T03:24:06.554Z,97.08
2017-06-02T03:25:08.020Z,97.08
2017-06-02T03:26:09.497Z,97.85
2017-06-02T03:27:10.944Z,97.46
2017-06-02T03:28:12.399Z,97.17
2017-06-02T03:29:13.858Z,97.27
2017-06-02T03:30:15.315Z,97.41
2017-06-02T03:31:16.786Z,98.22
2017-06-02T03:32:18.239Z,98.22
2017-06-02T03:33:19.697Z,97.99
2017-06-02T03:34:21.221Z,98.03
2017-06-02T03:35:22.680Z,97.56
2017-06-02T03:36:24.144Z,96.61
2017-06-02T03:37:25.601Z,96.80
2017-06-02T03:38:27.060Z,96.13
2017-06-02T03:39:28.519Z,95.75
2017-06-02T03:40:29.977Z,95.94
2017-06-02T03:41:31.434Z,96.41
2017-06-02T03:42:32.896Z,96.13
2017-06-02T03:43:34.359Z,96.03
2017-06-02T03:44:35.817Z,95.37
2017-06-02T03:45:37.276Z,95.94
2017-06-02T03:46:38.738Z,95.41
2017-06-02T03:47:40.199Z,95.65
2017-06-02T03:48:41.659Z,95.27
2017-06-02T03:49:43.115Z,94.60
2017-06-02T03:50:44.574Z,93.79
2017-06-02T03:51:46.031Z,91.78
2017-06-02T03:52:47.496Z,91.69
2017-06-02T03:53:48.953Z,90.88
2017-06-02T03:54:50.408Z,90.21
2017-06-02T03:55:51.864Z,89.64
2017-06-02T03:56:53.327Z,89.06
2017-06-02T03:57:54.786Z,89.06
2017-06-02T03:58:56.248Z,89.16
2017-06-02T03:59:57.705Z,88.30
2017-06-02T04:00:59.165Z,88.87
2017-06-02T04:02:00.622Z,89.35
2017-06-02T04:03:02.079Z,88.78
2017-06-02T04:04:03.561Z,89.25
2017-06-02T04:05:05.018Z,89.06
2017-06-02T04:06:07.997Z,88.30
2017-06-02T04:07:09.459Z,88.30
2017-06-02T04:08:10.921Z,88.30
2017-06-02T04:09:12.385Z,88.11
2017-06-02T04:10:13.844Z,87.54
2017-06-02T04:11:15.295Z,87.10
2017-06-02T04:12:16.751Z,87.10
2017-06-02T04:13:18.210Z,86.43
2017-06-02T04:14:19.670Z,85.77
2017-06-02T04:15:21.133Z,85.77
2017-06-02T04:16:22.601Z,84.52
2017-06-02T04:17:24.057Z,85.10
2017-06-02T04:18:25.515Z,85.00
2017-06-02T04:19:26.983Z,84.19
2017-06-02T04:20:28.448Z,84.28
2017-06-02T04:21:29.906Z,83.42
2017-06-02T04:22:31.366Z,82.84
2017-06-02T04:23:32.827Z,82.65
2017-06-02T04:24:34.286Z,82.75
2017-06-02T04:25:35.741Z,82.41
2017-06-02T04:26:37.205Z,81.36
2017-06-02T04:27:38.662Z,80.98
2017-06-02T04:28:40.118Z,80.50
2017-06-02T04:29:41.576Z,79.73
2017-06-02T04:30:43.053Z,79.10
2017-06-02T04:31:44.513Z,77.90
2017-06-02T04:32:45.971Z,76.84
2017-06-02T04:33:47.431Z,76.08
2017-06-02T04:34:48.891Z,74.77
2017-06-02T04:35:50.351Z,74.11
2017-06-02T04:36:51.818Z,73.66
2017-06-02T04:37:53.279Z,73.19
2017-06-02T04:38:54.744Z,72.42
2017-06-02T04:39:56.229Z,72.17
2017-06-02T04:40:57.694Z,71.50
2017-06-02T04:41:59.153Z,70.64
2017-06-02T04:43:00.623Z,70.19
2017-06-02T04:44:02.091Z,71.05
2017-06-02T04:45:03.565Z,70.00
2017-06-02T04:46:05.035Z,69.42
2017-06-02T04:47:06.527Z,69.71
2017-06-02T04:48:07.990Z,70.35
2017-06-02T04:49:09.461Z,71.40
2017-06-02T04:50:10.988Z,72.32
2017-06-02T04:51:12.450Z,72.23
2017-06-02T04:52:13.908Z,72.13
2017-06-02T04:53:15.380Z,73.09
2017-06-02T04:54:16.857Z,73.57
2017-06-02T04:55:18.315Z,73.57
2017-06-02T04:56:19.783Z,73.66
2017-06-02T04:57:21.259Z,73.19
2017-06-02T04:58:22.767Z,72.07
2017-06-02T04:59:24.234Z,71.53
2017-06-02T05:00:25.703Z,71.44
2017-06-02T05:01:27.169Z,71.63
2017-06-02T05:02:28.655Z,71.53
2017-06-02T05:03:30.102Z,71.15
2017-06-02T05:04:31.562Z,70.57
2017-06-02T05:05:33.028Z,70.86
2017-06-02T05:06:34.491Z,70.48
2017-06-02T05:07:35.984Z,69.81
2017-06-02T05:08:37.451Z,68.98
2017-06-02T05:09:38.917Z,67.57
2017-06-02T05:10:40.388Z,66.46
2017-06-02T05:11:41.848Z,66.26
2017-06-02T05:12:43.351Z,67.00
2017-06-02T05:13:44.822Z,67.29
2017-06-02T05:14:46.290Z,67.13
2017-06-02T05:15:47.758Z,66.84
2017-06-02T05:16:49.222Z,66.55
2017-06-02T05:17:50.697Z,66.46
2017-06-02T05:18:52.173Z,65.97
2017-06-02T05:19:53.631Z,65.43
2017-06-02T05:20:55.107Z,64.82
2017-06-02T05:21:56.576Z,64.76
2017-06-02T05:22:58.035Z,64.85
2017-06-02T05:23:59.510Z,64.18
2017-06-02T05:25:00.991Z,63.54
2017-06-02T05:26:02.452Z,62.32
2017-06-02T05:27:03.921Z,61.29
2017-06-02T05:28:05.389Z,58.92
2017-06-02T05:29:06.864Z,58.17
2017-06-02T05:30:08.334Z,57.14
2017-06-02T05:31:09.806Z,56.54
2017-06-02T05:32:11.277Z,57.28
2017-06-02T05:33:12.747Z,58.24
2017-06-02T05:34:14.250Z,57.79
2017-06-02T05:35:15.724Z,57.60
2017-06-02T05:36:17.196Z,56.76
2017-06-02T05:37:18.665Z,56.37
2017-06-02T05:38:20.133Z,55.15
2017-06-02T05:39:21.605Z,54.09
2017-06-02T05:40:23.101Z,54.76
2017-06-02T05:41:24.570Z,55.77
2017-06-02T05:42:26.050Z,57.50
2017-06-02T05:43:27.518Z,57.79
2017-06-02T05:44:28.990Z,58.92
2017-06-02T05:45:30.476Z,57.05
2017-06-02T05:46:31.963Z,56.73
2017-06-02T05:47:33.419Z,57.17
2017-06-02T05:48:34.885Z,54.96
2017-06-02T05:49:36.367Z,53.85
2017-06-02T05:50:38.081Z,52.01
2017-06-02T05:51:39.551Z,52.31
2017-06-02T05:52:41.025Z,51.85
2017-06-02T05:53:42.501Z,51.46
2017-06-02T05:54:43.978Z,52.04
2017-06-02T05:55:45.447Z,52.14
2017-06-02T05:56:46.916Z,51.75
2017-06-02T05:57:48.409Z,50.91
2017-06-02T05:58:49.891Z,49.68
2017-06-02T05:59:51.358Z,49.39
2017-06-02T06:00:52.845Z,49.00
2017-06-02T06:01:54.333Z,49.39
2017-06-02T06:02:55.811Z,49.37
2017-06-02T06:03:57.287Z,49.39
2017-06-02T06:04:58.757Z,48.61
2017-06-02T06:06:00.256Z,48.61
2017-06-02T06:07:01.719Z,49.77
2017-06-02T06:08:03.191Z,50.43
2017-06-02T06:09:04.675Z,50.71
2017-06-02T06:10:06.143Z,49.75
2017-06-02T06:11:07.658Z,49.10
2017-06-02T06:12:09.127Z,49.58
2017-06-02T06:13:10.612Z,49.19
2017-06-02T06:14:12.093Z,50.35
2017-06-02T06:15:13.557Z,48.44
2017-06-02T06:16:15.051Z,47.60
2017-06-02T06:17:16.548Z,47.21
2017-06-02T06:18:18.021Z,46.44
2017-06-02T06:19:19.562Z,45.78
2017-06-02T06:20:21.057Z,44.84
2017-06-02T06:21:22.547Z,44.01
2017-06-02T06:22:24.026Z,43.72
2017-06-02T06:23:25.531Z,44.06
2017-06-02T06:24:27.001Z,44.84
2017-06-02T06:25:28.475Z,43.72
2017-06-02T06:26:29.951Z,41.78
2017-06-02T06:27:31.427Z,42.85
2017-06-02T06:28:32.896Z,42.75
2017-06-02T06:29:34.378Z,43.43
2017-06-02T06:30:35.859Z,43.23
2017-06-02T06:31:37.347Z,43.16
2017-06-02T06:32:38.833Z,42.26
2017-06-02T06:33:40.311Z,42.90
2017-06-02T06:34:41.866Z,43.12
2017-06-02T06:35:43.291Z,43.89
2017-06-02T06:36:44.779Z,42.85
2017-06-02T06:37:46.249Z,41.02
2017-06-02T06:38:47.727Z,41.05
2017-06-02T06:39:49.211Z,41.80
2017-06-02T06:40:50.725Z,41.84
2017-06-02T06:41:52.203Z,40.29
2017-06-02T06:42:53.689Z,40.48
2017-06-02T06:43:55.171Z,40.19
2017-06-02T06:44:56.653Z,40.19
2017-06-02T06:45:58.133Z,40.15
2017-06-02T06:46:59.606Z,41.99
2017-06-02T06:48:01.087Z,41.88
2017-06-02T06:49:02.573Z,42.67
2017-06-02T06:50:04.063Z,41.72
2017-06-02T06:51:05.551Z,40.69
2017-06-02T06:52:07.031Z,39.65
2017-06-02T06:53:08.515Z,41.05
2017-06-02T06:54:10.012Z,42.03
2017-06-02T06:55:11.533Z,41.92
2017-06-02T06:56:13.047Z,40.85
2017-06-02T06:57:14.519Z,41.64
2017-06-02T06:58:16.000Z,42.11
2017-06-02T06:59:17.476Z,41.38
2017-06-02T07:00:18.963Z,40.33
2017-06-02T07:01:20.458Z,39.53
2017-06-02T07:02:21.934Z,38.11
2017-06-02T07:03:23.422Z,38.40
2017-06-02T07:04:24.906Z,38.31
2017-06-02T07:05:26.386Z,38.42
2017-06-02T07:06:27.895Z,39.16
2017-06-02T07:07:29.371Z,41.92
2017-06-02T07:08:30.862Z,42.21
2017-06-02T07:09:32.329Z,41.82
2017-06-02T07:10:33.816Z,41.63
2017-06-02T07:11:35.306Z,42.50
2017-06-02T07:12:36.806Z,40.50
2017-06-02T07:13:38.290Z,40.29
2017-06-02T07:14:39.791Z,43.62
2017-06-02T07:15:41.276Z,43.74
2017-06-02T07:16:42.756Z,42.69
2017-06-02T07:17:44.242Z,42.69
2017-06-02T07:18:45.736Z,42.61
2017-06-02T07:19:47.216Z,41.18
2017-06-02T07:20:48.695Z,42.13
2017-06-02T07:21:50.179Z,42.23
2017-06-02T07:22:51.668Z,42.60
2017-06-02T07:23:53.181Z,42.15
2017-06-02T07:24:54.633Z,40.93
2017-06-02T07:25:56.113Z,39.08
2017-06-02T07:26:57.586Z,40.99
2017-06-02T07:27:59.069Z,40.13
2017-06-02T07:29:00.554Z,40.87
2017-06-02T07:30:02.039Z,40.62
2017-06-02T07:31:03.530Z,42.40
2017-06-02T07:32:05.002Z,41.77
2017-06-02T07:33:06.474Z,40.81
2017-06-02T07:34:07.959Z,40.25
2017-06-02T07:35:09.440Z,39.20
2017-06-02T07:36:10.926Z,38.15
2017-06-02T07:37:12.412Z,38.54
2017-06-02T07:38:13.899Z,39.00
2017-06-02T07:39:15.406Z,39.36
2017-06-02T07:40:16.883Z,40.44
2017-06-02T07:41:18.368Z,39.67
2017-06-02T07:42:19.882Z,38.64
2017-06-02T07:43:21.384Z,37.95
2017-06-02T07:44:22.879Z,37.84
2017-06-02T07:45:24.355Z,38.23
2017-06-02T07:46:25.838Z,37.02
2017-06-02T07:47:27.346Z,35.49
2017-06-02T07:48:28.824Z,34.91
2017-06-02T07:49:30.301Z,34.14
2017-06-02T07:50:31.785Z,33.28
2017-06-02T07:51:33.276Z,33.07
2017-06-02T07:52:34.748Z,33.83
2017-06-02T07:53:36.229Z,33.82
2017-06-02T07:54:37.722Z,34.86
2017-06-02T07:55:39.201Z,35.53
2017-06-02T07:56:40.680Z,35.63
2017-06-02T07:57:42.164Z,35.89
2017-06-02T07:58:43.649Z,34.95
2017-06-02T07:59:45.132Z,37.14
2017-06-02T08:00:46.606Z,37.43
2017-06-02T08:01:48.085Z,39.24
2017-06-02T08:02:49.570Z,38.11
2017-06-02T08:03:51.049Z,38.13
2017-06-02T08:04:52.529Z,36.22
2017-06-02T08:05:54.015Z,35.83
2017-06-02T08:06:55.513Z,35.71
2017-06-02T08:07:56.989Z,36.69
2017-06-02T08:08:58.468Z,36.02
2017-06-02T08:09:59.951Z,34.66
2017-06-02T08:11:01.424Z,33.90
2017-06-02T08:12:02.902Z,35.36
2017-06-02T08:13:04.381Z,35.25
2017-06-02T08:14:05.868Z,35.15
2017-06-02T08:15:07.345Z,36.00
2017-06-02T08:16:08.847Z,36.28
2017-06-02T08:17:10.340Z,36.79
2017-06-02T08:18:11.816Z,36.04
2017-06-02T08:19:13.302Z,34.29
2017-06-02T08:20:14.798Z,36.57
2017-06-02T08:21:16.297Z,36.67
2017-06-02T08:22:17.779Z,35.93
2017-06-02T08:23:19.254Z,34.39
2017-06-02T08:24:20.845Z,33.92
2017-06-02T08:25:22.330Z,33.14
2017-06-02T08:26:23.835Z,32.16
2017-06-02T08:27:25.326Z,30.70
2017-06-02T08:28:26.803Z,31.46
2017-06-02T08:29:28.293Z,31.59
2017-06-02T08:30:29.786Z,27.94
2017-06-02T08:31:31.268Z,26.57
2017-06-02T08:32:32.751Z,26.59
2017-06-02T08:33:34.271Z,26.35
2017-06-02T08:34:35.764Z,25.06
2017-06-02T08:35:37.251Z,25.65
2017-06-02T08:36:38.746Z,25.17
2017-06-02T08:37:40.243Z,24.68
2017-06-02T08:38:41.747Z,24.47
2017-06-02T08:39:43.213Z,25.34
2017-06-02T08:40:44.725Z,27.13
2017-06-02T08:41:46.210Z,26.38
2017-06-02T08:42:47.705Z,26.01
2017-06-02T08:43:49.180Z,25.34
2017-06-02T08:44:50.751Z,24.01
2017-06-02T08:45:52.268Z,24.68
2017-06-02T08:46:53.768Z,24.40
2017-06-02T08:47:55.254Z,22.81
2017-06-02T08:48:56.742Z,22.81
2017-06-02T08:49:58.221Z,23.22
2017-06-02T08:50:59.711Z,24.65
2017-06-02T08:52:01.199Z,24.99
2017-06-02T08:53:02.683Z,25.88
2017-06-02T08:54:04.171Z,24.92
2017-06-02T08:55:05.658Z,25.49
2017-06-02T08:56:07.150Z,26.29
2017-06-02T08:57:08.631Z,25.54
2017-06-02T08:58:10.117Z,25.40
2017-06-02T08:59:11.605Z,25.21
2017-06-02T09:00:13.094Z,25.12
2017-06-02T09:01:14.589Z,26.27
2017-06-02T09:02:16.105Z,26.17
2017-06-02T09:03:17.594Z,25.60
2017-06-02T09:04:19.081Z,25.89
2017-06-02T09:05:20.566Z,25.71
2017-06-02T09:06:22.058Z,25.71
2017-06-02T09:07:23.535Z,25.68
2017-06-02T09:08:25.023Z,26.54
2017-06-02T09:09:26.514Z,27.20
2017-06-02T09:10:28.010Z,27.31
2017-06-02T09:11:29.491Z,27.31
2017-06-02T09:12:30.976Z,28.85
2017-06-02T09:13:32.469Z,30.88
2017-06-02T09:14:33.963Z,29.81
2017-06-02T09:15:35.446Z,30.75
2017-06-02T09:16:36.927Z,31.34
2017-06-02T09:17:38.419Z,30.19
2017-06-02T09:18:39.900Z,28.96
2017-06-02T09:19:41.394Z,27.90
2017-06-02T09:20:42.876Z,28.18
2017-06-02T09:21:44.356Z,27.59
2017-06-02T09:22:45.835Z,27.81
2017-06-02T09:23:47.371Z,27.05
2017-06-02T09:24:48.852Z,25.83
2017-06-02T09:25:50.330Z,25.04
2017-06-02T09:26:51.820Z,25.22
2017-06-02T09:27:53.316Z,26.56
2017-06-02T09:28:54.808Z,26.27
2017-06-02T09:29:56.287Z,25.79
2017-06-02T09:30:57.786Z,26.89
2017-06-02T09:31:59.286Z,24.77
2017-06-02T09:33:00.773Z,24.21
2017-06-02T09:34:02.259Z,22.16
2017-06-02T09:35:03.741Z,21.85
2017-06-02T09:36:05.238Z,24.16
2017-06-02T09:37:06.718Z,25.39
2017-06-02T09:38:08.203Z,25.12
2017-06-02T09:39:09.693Z,25.04
2017-06-02T09:40:11.191Z,25.32
2017-06-02T09:41:12.707Z,25.71
2017-06-02T09:42:14.196Z,26.09
2017-06-02T09:43:15.689Z,26.61
2017-06-02T09:44:17.171Z,24.47
2017-06-02T09:45:18.664Z,24.27
2017-06-02T09:46:20.168Z,23.52
2017-06-02T09:47:21.649Z,23.90
2017-06-02T09:48:23.152Z,24.76
2017-06-02T09:49:24.631Z,23.99
2017-06-02T09:50:26.140Z,23.70
2017-06-02T09:51:27.607Z,22.95
2017-06-02T09:52:29.101Z,21.29
2017-06-02T09:53:30.608Z,21.38
2017-06-02T09:54:32.088Z,23.02
2017-06-02T09:55:33.571Z,23.79
2017-06-02T09:56:35.056Z,25.31
2017-06-02T09:57:36.541Z,24.95
2017-06-02T09:58:38.025Z,24.84
2017-06-02T09:59:39.504Z,24.55
2017-06-02T10:00:40.989Z,23.80
2017-06-02T10:01:42.480Z,23.60
2017-06-02T10:02:43.964Z,22.85
2017-06-02T10:03:45.440Z,23.02
2017-06-02T10:04:46.930Z,22.91
2017-06-02T10:05:48.412Z,22.73
2017-06-02T10:06:49.899Z,24.73
2017-06-02T10:07:51.389Z,24.73
2017-06-02T10:08:52.867Z,24.37
2017-06-02T10:09:54.350Z,24.16
2017-06-02T10:10:55.835Z,22.94
2017-06-02T10:11:57.329Z,22.78
2017-06-02T10:12:58.813Z,20.45
2017-06-02T10:14:00.312Z,20.34
2017-06-02T10:15:01.799Z,20.14
2017-06-02T10:16:03.287Z,20.72
2017-06-02T10:17:04.783Z,20.59
2017-06-02T10:18:06.267Z,20.72
2017-06-02T10:19:07.752Z,20.12
2017-06-02T10:20:09.232Z,22.81
2017-06-02T10:21:10.722Z,21.69
2017-06-02T10:22:12.210Z,21.76
2017-06-02T10:23:13.699Z,23.79
2017-06-02T10:24:15.202Z,23.98
2017-06-02T10:25:16.686Z,23.42
2017-06-02T10:26:18.186Z,22.74
2017-06-02T10:27:19.680Z,21.86
2017-06-02T10:28:21.182Z,21.49
2017-06-02T10:29:22.661Z,21.66
2017-06-02T10:30:24.143Z,21.38
2017-06-02T10:31:25.625Z,20.84
2017-06-02T10:32:27.128Z,21.38
2017-06-02T10:33:28.614Z,21.96
2017-06-02T10:34:30.096Z,22.13
2017-06-02T10:35:31.590Z,21.96
2017-06-02T10:36:33.081Z,18.98
2017-06-02T10:37:34.570Z,19.54
2017-06-02T10:38:36.057Z,19.06
2017-06-02T10:39:37.547Z,19.54
2017-06-02T10:40:39.030Z,19.74
2017-06-02T10:41:40.527Z,18.77
2017-06-02T10:42:42.032Z,18.98
2017-06-02T10:43:43.540Z,18.77
2017-06-02T10:44:45.015Z,18.70
2017-06-02T10:45:46.537Z,17.43
2017-06-02T10:46:48.034Z,17.82
2017-06-02T10:47:49.522Z,17.35
2017-06-02T10:48:51.009Z,17.83
2017-06-02T10:49:52.503Z,19.54
2017-06-02T10:50:54.008Z,18.90
2017-06-02T10:51:55.496Z,18.41
2017-06-02T10:52:57.049Z,18.40
2017-06-02T10:53:58.538Z,18.04
2017-06-02T10:55:00.025Z,16.96
2017-06-02T10:56:01.520Z,18.30
2017-06-02T10:57:03.006Z,17.37
2017-06-02T10:58:04.501Z,17.04
2017-06-02T10:59:05.990Z,17.23
2017-06-02T11:00:07.474Z,18.79
2017-06-02T11:01:08.958Z,18.41
2017-06-02T11:02:10.457Z,16.75
2017-06-02T11:03:11.956Z,17.13
2017-06-02T11:04:13.451Z,16.83
2017-06-02T11:05:14.935Z,16.74
2017-06-02T11:06:16.430Z,17.60
2017-06-02T11:07:17.925Z,16.94
2017-06-02T11:08:19.410Z,16.16
2017-06-02T11:09:20.896Z,16.97
2017-06-02T11:10:22.391Z,21.92
2017-06-02T11:11:23.895Z,20.30
2017-06-02T11:12:25.381Z,18.66
2017-06-02T11:13:26.864Z,17.80
2017-06-02T11:14:28.346Z,17.71
2017-06-02T11:15:29.849Z,18.96
2017-06-02T11:16:31.337Z,19.44
2017-06-02T11:17:32.820Z,20.30
2017-06-02T11:18:34.306Z,20.06
2017-06-02T11:19:35.826Z,18.60
2017-06-02T11:20:37.318Z,18.02
2017-06-02T11:21:38.813Z,16.93
2017-06-02T11:22:40.316Z,17.65
2017-06-02T11:23:41.807Z,15.92
2017-06-02T11:24:43.306Z,14.17
2017-06-02T11:25:44.808Z,13.45
2017-06-02T11:26:46.307Z,13.96
2017-06-02T11:27:47.797Z,12.87
2017-06-02T11:28:49.286Z,14.01
2017-06-02T11:29:50.790Z,15.95
2017-06-02T11:30:52.287Z,17.60
2017-06-02T11:31:53.777Z,17.40
2017-06-02T11:32:55.278Z,18.19
2017-06-02T11:33:56.774Z,18.27
2017-06-02T11:34:58.291Z,19.14
2017-06-02T11:35:59.781Z,20.19
2017-06-02T11:37:01.318Z,21.45
2017-06-02T11:38:02.796Z,22.42
2017-06-02T11:39:04.289Z,22.89
2017-06-02T11:40:05.795Z,22.78
2017-06-02T11:41:07.304Z,21.75
2017-06-02T11:42:08.788Z,21.66
2017-06-02T11:43:10.270Z,21.08
2017-06-02T11:44:11.743Z,22.80
2017-06-02T11:45:13.252Z,23.57
2017-06-02T11:46:14.734Z,23.59
2017-06-02T11:47:16.236Z,22.63
2017-06-02T11:48:17.718Z,20.12
2017-06-02T11:49:19.214Z,19.96
2017-06-02T11:50:20.709Z,18.77
2017-06-02T11:51:22.191Z,19.62
2017-06-02T11:52:23.677Z,19.93
2017-06-02T11:53:25.188Z,18.39
2017-06-02T11:54:26.749Z,18.59
2017-06-02T11:55:28.239Z,17.63
2017-06-02T11:56:29.732Z,17.37
2017-06-02T11:57:31.223Z,15.31
2017-06-02T11:58:32.750Z,14.74
2017-06-02T11:59:34.236Z,13.89
2017-06-02T12:00:35.732Z,13.36
2017-06-02T12:01:37.223Z,14.62
2017-06-02T12:02:38.709Z,15.22
2017-06-02T12:03:40.224Z,14.04
2017-06-02T12:04:41.707Z,15.48
2017-06-02T12:05:43.226Z,18.09
2017-06-02T12:06:44.743Z,17.54
2017-06-02T12:07:46.224Z,17.42
2017-06-02T12:08:47.714Z,18.30
2017-06-02T12:09:49.200Z,18.62
2017-06-02T12:10:50.693Z,18.59
2017-06-02T12:11:52.175Z,19.73
2017-06-02T12:12:53.658Z,19.64
2017-06-02T12:13:55.147Z,18.48
2017-06-02T12:14:56.642Z,17.91
2017-06-02T12:15:58.218Z,18.38
2017-06-02T12:16:59.582Z,19.35
2017-06-02T12:18:01.069Z,19.35
2017-06-02T12:19:02.552Z,19.34
2017-06-02T12:20:04.033Z,20.39
2017-06-02T12:21:05.514Z,21.37
2017-06-02T12:22:07.012Z,21.75
2017-06-02T12:23:08.501Z,20.04
2017-06-02T12:24:09.986Z,19.37
2017-06-02T12:25:11.468Z,17.93
2017-06-02T12:26:12.962Z,17.22
2017-06-02T12:27:14.458Z,18.01
2017-06-02T12:28:15.943Z,18.60
2017-06-02T12:29:17.435Z,18.98
2017-06-02T12:30:18.915Z,18.48
2017-06-02T12:31:20.417Z,18.60
2017-06-02T12:32:21.892Z,18.66
2017-06-02T12:33:23.385Z,20.51
2017-06-02T12:34:24.893Z,21.45
2017-06-02T12:35:26.382Z,21.08
2017-06-02T12:36:27.868Z,21.27
2017-06-02T12:37:29.358Z,21.27
2017-06-02T12:38:30.854Z,21.56
2017-06-02T12:39:32.334Z,21.76
2017-06-02T12:40:34.231Z,21.27
2017-06-02T12:41:35.716Z,22.33
2017-06-02T12:42:37.195Z,22.34
2017-06-02T12:43:38.686Z,22.72
2017-06-02T12:44:40.177Z,23.31
2017-06-02T12:45:41.655Z,24.33
2017-06-02T12:46:43.145Z,25.39
2017-06-02T12:47:44.653Z,26.86
2017-06-02T12:48:46.133Z,25.98
2017-06-02T12:49:47.623Z,26.66
2017-06-02T12:50:49.107Z,26.17
2017-06-02T12:51:50.588Z,25.88
2017-06-02T12:52:52.094Z,25.02
2017-06-02T12:53:53.570Z,24.43
2017-06-02T12:54:55.054Z,24.16
2017-06-02T12:55:56.548Z,23.03
2017-06-02T12:56:58.017Z,21.90
2017-06-02T12:57:59.501Z,19.08
2017-06-02T12:59:00.979Z,19.64
2017-06-02T13:00:02.464Z,21.09
2017-06-02T13:01:03.950Z,21.66
2017-06-02T13:02:05.433Z,22.45
2017-06-02T13:03:06.917Z,22.53
2017-06-02T13:04:08.409Z,23.02
2017-06-02T13:05:09.892Z,23.50
2017-06-02T13:06:11.368Z,23.11
2017-06-02T13:07:12.846Z,23.98
2017-06-02T13:08:14.342Z,24.54
2017-06-02T13:09:15.825Z,25.34
2017-06-02T13:10:17.311Z,25.24
2017-06-02T13:11:18.802Z,23.61